Time;durP1;ratioP1;P1;durP2;ratioP2;P2;SDS_P1;SDS_P2;PMS_P1;PMS_P2;Temp;Humidity;BMP_temperature;BMP_pressure;BME280_temperature;BME280_humidity;BME280_pressure;Samples;Min_cycle;Max_cycle;Signal;HPM_P1;HPM_P2
2022/09/01 00:01:20;;;;;;;2.53;1.35;;;;;;;-144.48;100.00;62369.91;4999266;28;20455;-67
2022/09/01 00:03:51;;;;;;;4.00;1.33;;;;;;;-144.48;100.00;62369.91;5017055;28;20183;-65
2022/09/01 00:06:22;;;;;;;5.75;1.55;;;;;;;-144.48;100.00;62369.91;5016467;28;20463;-65
2022/09/01 00:08:53;;;;;;;4.03;1.30;;;;;;;-144.48;100.00;62369.91;5014130;28;20055;-68
2022/09/01 00:11:20;;;;;;;6.20;1.42;;;;;;;-144.48;100.00;62369.91;5019368;28;20049;-67
2022/09/01 00:13:47;;;;;;;4.47;1.48;;;;;;;-144.48;100.00;62369.91;5025385;28;20038;-68
2022/09/01 00:16:14;;;;;;;3.47;1.42;;;;;;;-144.48;100.00;62369.91;5025170;28;20457;-63
2022/09/01 00:18:41;;;;;;;2.03;1.10;;;;;;;-144.48;100.00;62369.91;5019623;28;20017;-67
2022/09/01 00:21:08;;;;;;;3.75;1.33;;;;;;;-144.48;100.00;62369.91;5018395;28;20033;-68
2022/09/01 00:23:33;;;;;;;4.88;1.35;;;;;;;-144.48;100.00;62369.91;5019667;28;20034;-67
2022/09/01 00:25:59;;;;;;;4.13;1.08;;;;;;;-144.48;100.00;62369.91;5018020;28;20030;-67
2022/09/01 00:28:24;;;;;;;4.20;1.45;;;;;;;-144.48;100.00;62369.91;5023398;28;20029;-68
2022/09/01 00:30:50;;;;;;;2.75;1.30;;;;;;;-144.48;100.00;62369.91;5024607;28;20951;-66
2022/09/01 00:33:15;;;;;;;3.33;1.40;;;;;;;-144.48;100.00;62369.91;5015291;28;20044;-68
2022/09/01 00:35:40;;;;;;;6.30;1.20;;;;;;;-144.48;100.00;62369.91;5041269;28;20480;-67
2022/09/01 00:38:06;;;;;;;5.85;1.30;;;;;;;-144.48;100.00;62369.91;5008013;28;20021;-68
2022/09/01 00:40:32;;;;;;;4.65;1.63;;;;;;;-144.48;100.00;62369.91;5018753;28;20629;-68
2022/09/01 00:42:59;;;;;;;5.22;1.27;;;;;;;-144.48;100.00;62369.91;5023857;28;20030;-66
2022/09/01 00:45:25;;;;;;;6.00;1.48;;;;;;;-144.48;100.00;62369.91;5018400;28;20045;-66
2022/09/01 00:47:50;;;;;;;4.55;1.80;;;;;;;-144.48;100.00;62369.91;5025056;28;20018;-66
2022/09/01 00:50:17;;;;;;;9.68;2.17;;;;;;;-144.48;100.00;62369.91;5013910;28;20048;-68
2022/09/01 00:52:53;;;;;;;5.80;1.88;;;;;;;-144.48;100.00;62369.91;5012890;28;20097;-67
2022/09/01 00:55:30;;;;;;;10.10;1.95;;;;;;;-144.48;100.00;62369.91;5023457;28;20030;-65
2022/09/01 00:57:58;;;;;;;8.10;1.60;;;;;;;-144.48;100.00;62369.91;5011846;28;20155;-67
2022/09/01 01:00:27;;;;;;;5.45;1.58;;;;;;;-144.48;100.00;62369.91;5011360;28;20368;-67
2022/09/01 01:02:55;;;;;;;4.60;1.50;;;;;;;-144.48;100.00;62369.91;5012290;28;20022;-69
2022/09/01 01:05:38;;;;;;;5.55;1.75;;;;;;;-144.48;100.00;62369.91;5011994;28;20026;-67
2022/09/01 01:08:06;;;;;;;7.97;2.67;;;;;;;-144.48;100.00;62369.91;5017623;28;20175;-65
2022/09/01 01:10:37;;;;;;;6.15;2.10;;;;;;;-144.48;100.00;62369.91;5030468;28;20947;-66
2022/09/01 01:13:08;;;;;;;3.10;1.60;;;;;;;-144.48;100.00;62369.91;5023969;28;20245;-67
2022/09/01 01:15:35;;;;;;;9.38;2.13;;;;;;;-144.48;100.00;62369.91;5025027;28;20021;-66
2022/09/01 01:18:00;;;;;;;9.43;1.45;;;;;;;-144.48;100.00;62369.91;5012254;28;20041;-67
2022/09/01 01:23:44;;;;;;;4.80;1.40;;;;;;;-144.48;100.00;62369.91;5021004;28;20087;-68
2022/09/01 01:26:10;;;;;;;6.90;2.13;;;;;;;-144.48;100.00;62369.91;5021539;28;20538;-68
2022/09/01 01:28:43;;;;;;;5.43;2.10;;;;;;;-144.48;100.00;62369.91;5023872;28;20251;-67
2022/09/01 01:31:17;;;;;;;5.85;1.63;;;;;;;-144.48;100.00;62369.91;5012018;28;20026;-67
2022/09/01 01:33:53;;;;;;;6.15;1.27;;;;;;;-144.48;100.00;62369.91;5020120;28;20072;-67
2022/09/01 01:36:31;;;;;;;5.15;1.35;;;;;;;-144.48;100.00;62369.91;5010977;28;20036;-66
2022/09/01 01:39:00;;;;;;;4.07;1.98;;;;;;;-144.48;100.00;62369.91;5025153;28;20029;-68
2022/09/01 01:41:28;;;;;;;7.03;2.20;;;;;;;-144.48;100.00;62369.91;5024229;28;20091;-68
2022/09/01 01:43:57;;;;;;;6.03;1.90;;;;;;;-144.48;100.00;62369.91;5031753;28;20506;-68
2022/09/01 01:46:25;;;;;;;6.05;1.42;;;;;;;-144.48;100.00;62369.91;5004669;28;20561;-67
2022/09/01 01:48:52;;;;;;;5.43;1.70;;;;;;;-144.48;100.00;62369.91;5024059;28;20380;-65
2022/09/01 01:51:20;;;;;;;3.45;1.23;;;;;;;-144.48;100.00;62369.91;5026631;28;20405;-68
2022/09/01 01:53:46;;;;;;;3.13;1.20;;;;;;;-144.48;100.00;62369.91;5031367;28;20496;-67
2022/09/01 01:56:12;;;;;;;3.97;1.45;;;;;;;-144.48;100.00;62369.91;5014386;28;20483;-65
2022/09/01 01:58:39;;;;;;;7.45;1.30;;;;;;;-144.48;100.00;62369.91;5020387;28;20107;-67
2022/09/01 02:01:09;;;;;;;4.93;1.48;;;;;;;-144.48;100.00;62369.91;5014368;28;20022;-68
2022/09/01 02:03:35;;;;;;;4.85;1.33;;;;;;;-144.48;100.00;62369.91;5003437;28;20231;-67
2022/09/01 02:06:06;;;;;;;6.15;1.55;;;;;;;-144.48;100.00;62369.91;5007571;28;20574;-65
2022/09/01 02:08:34;;;;;;;9.32;1.50;;;;;;;-144.48;100.00;62369.91;5010952;28;20113;-64
2022/09/01 02:11:00;;;;;;;7.75;1.40;;;;;;;-144.48;100.00;62369.91;5009760;28;20109;-65
2022/09/01 02:13:29;;;;;;;3.10;1.20;;;;;;;-144.48;100.00;62369.91;5011355;28;20165;-67
2022/09/01 02:15:57;;;;;;;5.05;1.58;;;;;;;-144.48;100.00;62369.91;5014812;28;20029;-66
2022/09/01 02:18:27;;;;;;;5.07;1.80;;;;;;;-144.48;100.00;62369.91;5030448;28;20025;-67
2022/09/01 02:20:53;;;;;;;3.17;1.40;;;;;;;-144.48;100.00;62369.91;5012079;28;20421;-67
2022/09/01 02:23:23;;;;;;;5.07;1.65;;;;;;;-144.48;100.00;62369.91;5023781;28;20026;-67
2022/09/01 02:25:52;;;;;;;5.03;1.45;;;;;;;-144.48;100.00;62369.91;5010940;28;20037;-67
2022/09/01 02:28:18;;;;;;;3.20;1.20;;;;;;;-144.48;100.00;62369.91;5022119;28;20033;-68
2022/09/01 02:30:46;;;;;;;4.18;1.42;;;;;;;-144.48;100.00;62369.91;5011056;28;20507;-65
2022/09/01 02:33:19;;;;;;;5.32;1.40;;;;;;;-144.48;100.00;62369.91;5010066;28;20029;-69
2022/09/01 02:35:50;;;;;;;4.38;1.30;;;;;;;-144.48;100.00;62369.91;4996447;28;20111;-68
2022/09/01 02:38:16;;;;;;;9.25;2.10;;;;;;;-144.48;100.00;62369.91;5010927;28;20032;-67
2022/09/01 02:40:45;;;;;;;3.75;1.52;;;;;;;-144.48;100.00;62369.91;5027343;28;20060;-68
2022/09/01 02:43:12;;;;;;;;;;;;;;;-144.48;100.00;62369.91;5029941;28;20021;-65
2022/09/01 02:45:38;;;;;;;6.63;1.50;;;;;;;-144.48;100.00;62369.91;5020916;28;19949;-67
2022/09/01 02:48:09;;;;;;;4.72;1.83;;;;;;;-144.48;100.00;62369.91;5010195;28;20022;-66
2022/09/01 02:50:35;;;;;;;2.47;1.20;;;;;;;-144.48;100.00;62369.91;5009071;28;20026;-67
2022/09/01 02:53:00;;;;;;;6.25;1.63;;;;;;;-144.48;100.00;62369.91;5013677;28;20029;-66
2022/09/01 02:55:26;;;;;;;4.97;1.73;;;;;;;-144.48;100.00;62369.91;5030182;28;20340;-67
2022/09/01 02:57:55;;;;;;;4.13;1.60;;;;;;;-144.48;100.00;62369.91;5013384;28;20026;-67
2022/09/01 03:00:27;;;;;;;3.80;1.58;;;;;;;-144.48;100.00;62369.91;5009474;28;20029;-68
2022/09/01 03:02:55;;;;;;;4.85;1.60;;;;;;;-144.48;100.00;62369.91;5008562;28;20124;-69
2022/09/01 03:05:25;;;;;;;8.65;1.33;;;;;;;-144.48;100.00;62369.91;5009230;28;20446;-66
2022/09/01 03:08:03;;;;;;;3.28;1.27;;;;;;;-144.48;100.00;62369.91;5028269;28;20100;-67
2022/09/01 03:10:35;;;;;;;4.45;1.55;;;;;;;-144.48;100.00;62369.91;5016479;28;20099;-67
2022/09/01 03:13:07;;;;;;;7.30;1.50;;;;;;;-144.48;100.00;62369.91;5021078;28;20030;-66
2022/09/01 03:15:35;;;;;;;6.32;1.98;;;;;;;-144.48;100.00;62369.91;5025018;28;20108;-66
2022/09/01 03:18:01;;;;;;;6.97;1.90;;;;;;;-144.48;100.00;62369.91;5019773;28;20076;-67
2022/09/01 03:20:28;;;;;;;5.85;1.40;;;;;;;-144.48;100.00;62369.91;5022792;28;20100;-68
2022/09/01 03:22:56;;;;;;;5.97;1.50;;;;;;;-144.48;100.00;62369.91;5018926;28;20025;-67
2022/09/01 03:25:23;;;;;;;3.20;1.35;;;;;;;-144.48;100.00;62369.91;5010850;28;20478;-68
2022/09/01 03:27:52;;;;;;;7.05;1.70;;;;;;;-144.48;100.00;62369.91;4998000;28;20030;-69
2022/09/01 03:30:18;;;;;;;4.03;1.70;;;;;;;-144.48;100.00;62369.91;5012462;28;20037;-68
2022/09/01 03:32:44;;;;;;;4.05;1.52;;;;;;;-144.48;100.00;62369.91;5021344;28;20044;-66
2022/09/01 03:35:10;;;;;;;3.15;1.40;;;;;;;-144.48;100.00;62369.91;5028635;28;20025;-68
2022/09/01 03:37:38;;;;;;;4.30;1.40;;;;;;;-144.48;100.00;62369.91;5030718;28;20044;-68
2022/09/01 03:40:07;;;;;;;4.65;1.70;;;;;;;-144.48;100.00;62369.91;5032745;28;20021;-66
2022/09/01 03:42:34;;;;;;;2.60;1.40;;;;;;;-144.48;100.00;62369.91;5031812;28;20029;-67
2022/09/01 03:45:02;;;;;;;5.13;1.75;;;;;;;-144.48;100.00;62369.91;5014250;28;20056;-66
2022/09/01 03:47:27;;;;;;;4.38;1.85;;;;;;;-144.48;100.00;62369.91;5011450;28;20047;-67
2022/09/01 03:49:53;;;;;;;4.55;1.77;;;;;;;-144.48;100.00;62369.91;5009838;28;20295;-67
2022/09/01 03:52:21;;;;;;;5.30;1.70;;;;;;;-144.48;100.00;62369.91;5009587;28;20454;-68
2022/09/01 03:54:46;;;;;;;3.22;1.45;;;;;;;-144.48;100.00;62369.91;5027156;28;20025;-68
2022/09/01 03:57:12;;;;;;;5.88;1.80;;;;;;;-144.48;100.00;62369.91;5014028;28;20030;-65
2022/09/01 03:59:42;;;;;;;4.82;1.60;;;;;;;-144.48;100.00;62369.91;5024427;28;20269;-66
2022/09/01 04:02:07;;;;;;;3.30;1.50;;;;;;;-144.48;100.00;62369.91;5018833;28;20026;-67
2022/09/01 04:04:33;;;;;;;4.72;1.50;;;;;;;-144.48;100.00;62369.91;4998143;28;20029;-66
2022/09/01 04:07:01;;;;;;;4.90;1.45;;;;;;;-144.48;100.00;62369.91;5019645;28;20464;-69
2022/09/01 04:09:26;;;;;;;31.30;3.80;;;;;;;-144.48;100.00;62369.91;5024473;28;20292;-67
2022/09/01 04:11:53;;;;;;;9.80;1.90;;;;;;;-144.48;100.00;62369.91;5020480;28;20228;-64
2022/09/01 04:14:18;;;;;;;4.47;1.70;;;;;;;-144.48;100.00;62369.91;5029081;28;20334;-69
2022/09/01 04:19:31;;;;;;;4.07;1.55;;;;;;;-144.48;100.00;62369.91;5022429;28;20603;-67
2022/09/01 04:22:01;;;;;;;;;;;;;;;-144.48;100.00;62369.91;5011242;28;20034;-66
2022/09/01 04:24:29;;;;;;;5.80;1.80;;;;;;;-144.48;100.00;62369.91;5008781;28;19913;-67
2022/09/01 04:26:57;;;;;;;4.50;1.75;;;;;;;-144.48;100.00;62369.91;5022336;28;20138;-67
2022/09/01 04:29:26;;;;;;;5.38;1.70;;;;;;;-144.48;100.00;62369.91;5018701;28;20026;-66
2022/09/01 04:31:52;;;;;;;3.30;1.63;;;;;;;-144.48;100.00;62369.91;5007665;28;20029;-67
2022/09/01 04:34:21;;;;;;;4.60;1.55;;;;;;;-144.48;100.00;62369.91;5008671;28;20223;-67
2022/09/01 04:36:47;;;;;;;13.68;1.85;;;;;;;-144.48;100.00;62369.91;5016259;28;20046;-68
2022/09/01 04:39:13;;;;;;;4.68;1.60;;;;;;;-144.48;100.00;62369.91;5010474;28;20021;-68
2022/09/01 04:41:44;;;;;;;8.18;2.00;;;;;;;-144.48;100.00;62369.91;5009062;28;20095;-65
2022/09/01 04:44:11;;;;;;;9.70;1.90;;;;;;;-144.48;100.00;62369.91;5029814;28;20060;-66
2022/09/01 04:46:41;;;;;;;4.13;1.80;;;;;;;-144.48;100.00;62369.91;5005905;28;20038;-69
2022/09/01 04:49:09;;;;;;;6.18;1.92;;;;;;;-144.48;100.00;62369.91;4992374;28;20026;-68
2022/09/01 04:51:46;;;;;;;17.45;2.15;;;;;;;-144.48;100.00;62369.91;4979955;28;20077;-67
2022/09/01 04:54:13;;;;;;;7.15;1.98;;;;;;;-144.48;100.00;62369.91;5000365;28;20133;-65
2022/09/01 04:56:40;;;;;;;14.48;1.92;;;;;;;-144.48;100.00;62369.91;4992078;28;20806;-69
2022/09/01 04:59:07;;;;;;;10.88;1.85;;;;;;;-144.48;100.00;62369.91;4991230;28;20038;-68
2022/09/01 05:01:42;;;;;;;7.88;2.00;;;;;;;-144.48;100.00;62369.91;4992133;28;20096;-65
2022/09/01 05:04:11;;;;;;;9.45;1.63;;;;;;;-144.48;100.00;62369.91;4993493;28;20037;-68
2022/09/01 05:06:41;;;;;;;21.27;5.03;;;;;;;-144.48;100.00;62369.91;4989001;28;20053;-67
2022/09/01 05:09:08;;;;;;;6.75;2.20;;;;;;;-144.48;100.00;62369.91;4991965;28;20038;-68
2022/09/01 05:11:36;;;;;;;3.75;1.85;;;;;;;-144.48;100.00;62369.91;4993389;28;20037;-68
2022/09/01 05:14:04;;;;;;;9.95;1.73;;;;;;;-144.48;100.00;62369.91;4999899;28;20024;-68
2022/09/01 05:16:29;;;;;;;17.90;2.10;;;;;;;-144.48;100.00;62369.91;4994913;28;20111;-68
2022/09/01 05:18:56;;;;;;;4.72;1.98;;;;;;;-144.48;100.00;62369.91;4991008;28;20515;-68
2022/09/01 05:21:28;;;;;;;6.47;2.15;;;;;;;-144.48;100.00;62369.91;4999139;28;20392;-67
2022/09/01 05:24:20;;;;;;;3.60;1.50;;;;;;;-144.48;100.00;62369.91;4999474;28;20037;-72
2022/09/01 05:26:46;;;;;;;8.52;1.63;;;;;;;-144.48;100.00;62369.91;5009359;28;20556;-66
2022/09/01 05:29:12;;;;;;;12.95;1.95;;;;;;;-144.48;100.00;62369.91;5010361;28;20372;-68
2022/09/01 05:31:42;;;;;;;5.20;2.03;;;;;;;-144.48;100.00;62369.91;5023809;28;20029;-66
2022/09/01 05:34:08;;;;;;;3.45;1.58;;;;;;;-144.48;100.00;62369.91;5011183;28;20044;-66
2022/09/01 05:36:35;;;;;;;4.50;1.73;;;;;;;-144.48;100.00;62369.91;5010650;28;20034;-69
2022/09/01 05:39:01;;;;;;;5.00;1.70;;;;;;;-144.48;100.00;62369.91;5024853;28;20075;-68
2022/09/01 05:41:27;;;;;;;11.48;2.00;;;;;;;-144.48;100.00;62369.91;5028958;28;20491;-68
2022/09/01 05:43:53;;;;;;;3.70;1.67;;;;;;;-144.48;100.00;62369.91;5031492;28;20031;-69
2022/09/01 05:46:21;;;;;;;8.43;2.38;;;;;;;-144.48;100.00;62369.91;5043391;22;20148;-70
2022/09/01 05:48:48;;;;;;;7.47;2.03;;;;;;;-144.48;100.00;62369.91;5030762;28;20032;-72
2022/09/01 05:51:18;;;;;;;5.63;1.95;;;;;;;-144.48;100.00;62369.91;5030132;28;20029;-71
2022/09/01 05:53:45;;;;;;;3.13;1.50;;;;;;;-144.48;100.00;62369.91;5031697;28;20045;-74
2022/09/01 05:56:13;;;;;;;3.40;1.58;;;;;;;-144.48;100.00;62369.91;5022379;28;20045;-71
2022/09/01 05:58:41;;;;;;;6.03;2.05;;;;;;;-144.48;100.00;62369.91;5026589;28;20372;-72
2022/09/01 06:01:06;;;;;;;9.20;1.80;;;;;;;-144.48;100.00;62369.91;5022636;28;20025;-72
2022/09/01 06:03:32;;;;;;;3.95;1.75;;;;;;;-144.48;100.00;62369.91;5019301;28;20026;-71
2022/09/01 06:06:04;;;;;;;7.70;2.60;;;;;;;-144.48;100.00;62369.91;5029006;28;20017;-73
2022/09/01 06:08:29;;;;;;;13.95;2.80;;;;;;;-144.48;100.00;62369.91;5030365;28;20055;-72
2022/09/01 06:10:55;;;;;;;7.38;1.95;;;;;;;-144.48;100.00;62369.91;5022109;28;20034;-71
2022/09/01 06:13:20;;;;;;;10.73;2.10;;;;;;;-144.48;100.00;62369.91;5007348;28;20403;-72
2022/09/01 06:15:52;;;;;;;3.97;1.63;;;;;;;-144.48;100.00;62369.91;5002534;28;20028;-72
2022/09/01 06:18:18;;;;;;;5.88;1.70;;;;;;;-144.48;100.00;62369.91;5029119;28;20025;-70
2022/09/01 06:20:45;;;;;;;2.95;1.50;;;;;;;-144.48;100.00;62369.91;5019161;28;20029;-74
2022/09/01 06:23:14;;;;;;;7.03;1.73;;;;;;;-144.48;100.00;62369.91;5016779;28;20033;-71
2022/09/01 06:25:45;;;;;;;3.92;1.80;;;;;;;-144.48;100.00;62369.91;5043128;28;20019;-71
2022/09/01 06:28:16;;;;;;;3.30;1.50;;;;;;;-144.48;100.00;62369.91;5028704;28;20041;-71
2022/09/01 06:30:44;;;;;;;3.55;1.48;;;;;;;-144.48;100.00;62369.91;5017392;28;20080;-70
2022/09/01 06:33:12;;;;;;;9.05;2.10;;;;;;;-144.48;100.00;62369.91;4996769;28;20018;-70
2022/09/01 06:35:41;;;;;;;3.37;1.60;;;;;;;-144.48;100.00;62369.91;4996370;28;20074;-68
2022/09/01 06:38:07;;;;;;;;;;;;;;;-144.48;100.00;62369.91;4995418;28;20034;-68
2022/09/01 06:40:34;;;;;;;9.60;1.63;;;;;;;-144.48;100.00;62369.91;4993996;28;19956;-68
2022/09/01 06:43:01;;;;;;;3.67;1.50;;;;;;;-144.48;100.00;62369.91;4993631;28;20092;-68
2022/09/01 06:45:26;;;;;;;13.07;1.55;;;;;;;-144.48;100.00;62369.91;4992448;28;20084;-70
2022/09/01 06:47:52;;;;;;;4.50;1.55;;;;;;;-144.48;100.00;62369.91;4993809;28;20031;-70
2022/09/01 06:50:23;;;;;;;10.68;2.05;;;;;;;-144.48;100.00;62369.91;4991885;28;20030;-70
2022/09/01 06:52:59;;;;;;;7.47;1.73;;;;;;;-144.48;100.00;62369.91;5016851;28;20490;-71
2022/09/01 06:55:32;;;;;;;5.68;1.98;;;;;;;-144.48;100.00;62369.91;4997425;28;20121;-70
2022/09/01 06:57:58;;;;;;;3.60;1.25;;;;;;;-144.48;100.00;62369.91;4992037;28;20506;-71
2022/09/01 07:00:25;;;;;;;3.40;1.50;;;;;;;-144.48;100.00;62369.91;4989148;28;20040;-70
2022/09/01 07:02:55;;;;;;;6.82;1.52;;;;;;;-144.48;100.00;62369.91;4991376;28;20109;-68
2022/09/01 07:05:21;;;;;;;10.30;1.90;;;;;;;-144.48;100.00;62369.91;4991441;28;20033;-72
2022/09/01 07:07:49;;;;;;;3.65;1.65;;;;;;;-144.48;100.00;62369.91;4998868;28;20025;-69
2022/09/01 07:10:18;;;;;;;6.85;1.80;;;;;;;-144.48;100.00;62369.91;4996565;28;20032;-70
2022/09/01 07:12:45;;;;;;;6.75;1.95;;;;;;;-144.48;100.00;62369.91;4989408;28;20037;-69
2022/09/01 07:15:16;;;;;;;10.95;1.77;;;;;;;-144.48;100.00;62369.91;4993980;28;20535;-69
2022/09/01 07:17:48;;;;;;;6.75;1.60;;;;;;;-144.48;100.00;62369.91;4994181;28;20077;-71
2022/09/01 07:20:14;;;;;;;4.13;1.67;;;;;;;-144.48;100.00;62369.91;4992772;28;20113;-71
2022/09/01 07:22:40;;;;;;;4.00;1.55;;;;;;;-144.48;100.00;62369.91;4993729;28;20165;-69
2022/09/01 07:25:09;;;;;;;4.72;1.73;;;;;;;-144.48;100.00;62369.91;4998641;28;20026;-68
2022/09/01 07:27:35;;;;;;;3.83;1.20;;;;;;;-144.48;100.00;62369.91;4988882;28;20503;-70
2022/09/01 07:30:00;;;;;;;5.68;1.30;;;;;;;-144.48;100.00;62369.91;4995392;28;20031;-70
2022/09/01 07:32:29;;;;;;;7.78;2.10;;;;;;;-144.48;100.00;62369.91;4992407;28;20486;-69
2022/09/01 07:34:55;;;;;;;4.78;1.50;;;;;;;-144.48;100.00;62369.91;4996741;28;20533;-70
2022/09/01 07:37:21;;;;;;;5.07;1.73;;;;;;;-144.48;100.00;62369.91;4995918;28;20036;-70
2022/09/01 07:39:47;;;;;;;7.97;1.60;;;;;;;-144.48;100.00;62369.91;4992285;28;20033;-69
2022/09/01 07:42:16;;;;;;;5.20;1.58;;;;;;;-144.48;100.00;62369.91;4989388;28;20034;-70
2022/09/01 07:44:41;;;;;;;4.95;1.63;;;;;;;-144.48;100.00;62369.91;4993265;28;20487;-70
2022/09/01 07:47:07;;;;;;;4.03;1.23;;;;;;;-144.48;100.00;62369.91;4992119;28;20598;-70
2022/09/01 07:49:32;;;;;;;5.80;1.27;;;;;;;-144.48;100.00;62369.91;4996140;28;20022;-70
2022/09/01 07:52:00;;;;;;;5.70;1.60;;;;;;;-144.48;100.00;62369.91;4992611;28;20507;-71
2022/09/01 07:54:26;;;;;;;5.65;1.17;;;;;;;-144.48;100.00;62369.91;4993629;28;20300;-69
2022/09/01 07:56:54;;;;;;;6.03;1.38;;;;;;;-144.48;100.00;62369.91;4990786;28;20026;-69
2022/09/01 07:59:20;;;;;;;6.90;1.60;;;;;;;-144.48;100.00;62369.91;4992410;28;20054;-69
2022/09/01 08:01:46;;;;;;;8.13;1.70;;;;;;;-144.48;100.00;62369.91;4990648;28;20108;-69
2022/09/01 08:04:11;;;;;;;6.57;1.33;;;;;;;-144.48;100.00;62369.91;4992207;28;21214;-70
2022/09/01 08:06:37;;;;;;;5.78;2.17;;;;;;;-144.48;100.00;62369.91;4989474;28;20038;-69
2022/09/01 08:09:05;;;;;;;7.13;1.73;;;;;;;-144.48;100.00;62369.91;4991990;28;20553;-69
2022/09/01 08:11:31;;;;;;;5.93;1.45;;;;;;;-144.48;100.00;62369.91;4995050;28;20033;-69
2022/09/01 08:13:58;;;;;;;4.93;1.55;;;;;;;-144.48;100.00;62369.91;4991954;28;20566;-69
2022/09/01 08:16:25;;;;;;;6.03;1.88;;;;;;;-144.48;100.00;62369.91;4993621;28;20499;-69
2022/09/01 08:18:50;;;;;;;5.75;1.67;;;;;;;-144.48;100.00;62369.91;4992645;28;20053;-68
2022/09/01 08:21:20;;;;;;;5.70;1.63;;;;;;;-144.48;100.00;62369.91;4992045;28;20181;-71
2022/09/01 08:23:46;;;;;;;3.75;1.30;;;;;;;-144.48;100.00;62369.91;4990780;28;20471;-70
2022/09/01 08:26:14;;;;;;;11.82;1.70;;;;;;;-144.48;100.00;62369.91;4992522;28;20026;-70
2022/09/01 08:28:40;;;;;;;5.50;1.45;;;;;;;-144.48;100.00;62369.91;4991472;28;20034;-71
2022/09/01 08:31:11;;;;;;;4.65;1.77;;;;;;;-144.48;100.00;62369.91;4999290;28;20102;-68
2022/09/01 08:33:38;;;;;;;8.70;1.67;;;;;;;-144.48;100.00;62369.91;4996916;28;20092;-68
2022/09/01 08:36:06;;;;;;;4.03;1.73;;;;;;;-144.48;100.00;62369.91;4996888;28;20443;-70
2022/09/01 08:38:33;;;;;;;8.68;1.40;;;;;;;-144.48;100.00;62369.91;4977338;28;20026;-68
2022/09/01 08:40:59;;;;;;;4.30;1.45;;;;;;;-144.48;100.00;62369.91;4997852;28;20030;-69
2022/09/01 08:43:53;;;;;;;8.25;1.63;;;;;;;-144.48;100.00;62369.91;4994466;28;20480;-70
2022/09/01 08:46:22;;;;;;;10.40;1.92;;;;;;;-144.48;100.00;62369.91;4999850;28;20522;-70
2022/09/01 08:48:52;;;;;;;3.97;1.52;;;;;;;-144.48;100.00;62369.91;4995946;28;20176;-68
2022/09/01 08:51:42;;;;;;;7.38;1.52;;;;;;;-144.48;100.00;62369.91;4997049;28;20080;-68
2022/09/01 08:54:22;;;;;;;8.93;1.48;;;;;;;-144.48;100.00;62369.91;4996388;28;20484;-70
2022/09/01 08:56:59;;;;;;;4.65;1.67;;;;;;;-144.48;100.00;62369.91;4998322;28;20045;-70
2022/09/01 08:59:26;;;;;;;5.90;1.60;;;;;;;-144.48;100.00;62369.91;4996756;28;20028;-70
2022/09/01 09:01:57;;;;;;;8.70;1.65;;;;;;;-144.48;100.00;62369.91;4996497;28;20033;-69
2022/09/01 09:04:48;;;;;;;5.95;1.55;;;;;;;-144.48;100.00;62369.91;4996684;28;20036;-70
2022/09/01 09:07:40;;;;;;;5.45;1.85;;;;;;;-144.48;100.00;62369.91;4991087;28;20064;-70
2022/09/01 09:10:10;;;;;;;5.03;1.50;;;;;;;-144.48;100.00;62369.91;4999369;28;20117;-69
2022/09/01 09:13:01;;;;;;;2.75;1.33;;;;;;;-144.48;100.00;62369.91;4994287;28;20033;-70
2022/09/01 09:15:30;;;;;;;5.43;1.50;;;;;;;-144.48;100.00;62369.91;4992969;28;20106;-68
2022/09/01 09:18:06;;;;;;;4.18;1.30;;;;;;;-144.48;100.00;62369.91;4991734;28;20045;-68
2022/09/01 09:20:31;;;;;;;8.75;1.50;;;;;;;-144.48;100.00;62369.91;4997371;28;20449;-69
2022/09/01 09:22:57;;;;;;;5.93;1.48;;;;;;;-144.48;100.00;62369.91;4992365;28;20030;-69
2022/09/01 09:25:23;;;;;;;7.70;1.40;;;;;;;-144.48;100.00;62369.91;4995817;28;20026;-69
2022/09/01 09:27:49;;;;;;;10.48;2.10;;;;;;;-144.48;100.00;62369.91;4996450;28;20026;-68
2022/09/01 09:30:22;;;;;;;4.63;1.67;;;;;;;-144.48;100.00;62369.91;4993575;28;20048;-70
2022/09/01 09:32:59;;;;;;;12.43;1.63;;;;;;;-144.48;100.00;62369.91;4993062;28;20030;-70
2022/09/01 09:35:32;;;;;;;7.50;1.77;;;;;;;-144.48;100.00;62369.91;4997131;28;20034;-69
2022/09/01 09:38:27;;;;;;;5.10;1.60;;;;;;;-144.48;100.00;62369.91;4994826;28;20028;-70
2022/09/01 09:41:04;;;;;;;5.32;1.52;;;;;;;-144.48;100.00;62369.91;4985000;28;20049;-69
2022/09/01 09:43:34;;;;;;;5.82;1.77;;;;;;;-144.48;100.00;62369.91;5000445;28;20038;-69
2022/09/01 09:46:20;;;;;;;6.13;1.50;;;;;;;-144.48;100.00;62369.91;4995101;28;20040;-69
2022/09/01 09:48:45;;;;;;;8.60;1.63;;;;;;;-144.48;100.00;62369.91;4985394;28;20809;-69
2022/09/01 09:51:16;;;;;;;5.80;1.25;;;;;;;-144.48;100.00;62369.91;4995796;28;20052;-70
2022/09/01 09:53:42;;;;;;;4.75;1.30;;;;;;;-144.48;100.00;62369.91;4995698;28;20030;-69
2022/09/01 09:56:18;;;;;;;6.85;1.50;;;;;;;-144.48;100.00;62369.91;4994172;28;20140;-70
2022/09/01 09:58:45;;;;;;;6.68;1.40;;;;;;;-144.48;100.00;62369.91;4992470;28;20670;-68
2022/09/01 10:01:24;;;;;;;6.32;2.22;;;;;;;-144.48;100.00;62369.91;5016979;28;20029;-70
2022/09/01 10:03:58;;;;;;;7.15;1.50;;;;;;;-144.48;100.00;62369.91;4994325;28;20030;-70
2022/09/01 10:06:33;;;;;;;14.50;1.50;;;;;;;-144.48;100.00;62369.91;4993078;28;20049;-70
2022/09/01 10:09:02;;;;;;;3.35;1.70;;;;;;;-144.48;100.00;62369.91;4994217;28;20058;-68
2022/09/01 10:11:39;;;;;;;6.10;1.67;;;;;;;-144.48;100.00;62369.91;4994799;28;20022;-70
2022/09/01 10:14:09;;;;;;;3.25;1.23;;;;;;;-144.48;100.00;62369.91;4993344;28;20026;-70
2022/09/01 10:16:38;;;;;;;2.80;1.00;;;;;;;-144.48;100.00;62369.91;4996253;28;20029;-70
2022/09/01 10:19:10;;;;;;;3.88;1.45;;;;;;;-144.48;100.00;62369.91;4993254;28;20136;-70
2022/09/01 10:21:41;;;;;;;3.83;1.25;;;;;;;-144.48;100.00;62369.91;4997359;28;20038;-70
2022/09/01 10:24:23;;;;;;;8.57;1.30;;;;;;;-144.48;100.00;62369.91;4996069;28;20095;-70
2022/09/01 10:26:54;;;;;;;8.85;1.50;;;;;;;-144.48;100.00;62369.91;4994892;28;20558;-68
2022/09/01 10:29:25;;;;;;;3.65;1.23;;;;;;;-144.48;100.00;62369.91;4990988;28;20507;-71
2022/09/01 10:31:54;;;;;;;5.60;1.70;;;;;;;-144.48;100.00;62369.91;4993876;28;20036;-70
2022/09/01 10:34:21;;;;;;;2.17;0.93;;;;;;;-144.48;100.00;62369.91;4991629;28;20897;-70
2022/09/01 10:36:48;;;;;;;5.30;1.20;;;;;;;-144.48;100.00;62369.91;4994945;28;20046;-70
2022/09/01 10:39:17;;;;;;;4.22;1.42;;;;;;;-144.48;100.00;62369.91;4999376;28;20031;-71
2022/09/01 10:41:42;;;;;;;1.58;1.00;;;;;;;-144.48;100.00;62369.91;4992811;28;20114;-69
2022/09/01 10:44:12;;;;;;;1.27;0.90;;;;;;;-144.48;100.00;62369.91;4992369;28;20710;-69
2022/09/01 10:46:39;;;;;;;4.05;1.00;;;;;;;-144.48;100.00;62369.91;4993869;28;20038;-69
2022/09/01 10:49:19;;;;;;;2.60;0.95;;;;;;;-144.48;100.00;62369.91;4992159;28;20120;-71
2022/09/01 10:51:45;;;;;;;7.53;1.10;;;;;;;-144.48;100.00;62369.91;4993408;28;20349;-69
2022/09/01 10:54:39;;;;;;;2.88;1.00;;;;;;;-144.48;100.00;62369.91;4986043;28;20064;-70
2022/09/01 10:57:20;;;;;;;3.53;1.02;;;;;;;-144.48;100.00;62369.91;4995218;28;20448;-70
2022/09/01 10:59:46;;;;;;;4.72;1.02;;;;;;;-144.48;100.00;62369.91;4998599;28;20523;-69
2022/09/01 11:02:16;;;;;;;6.30;1.38;;;;;;;-144.48;100.00;62369.91;4992627;28;20026;-70
2022/09/01 11:04:44;;;;;;;4.10;1.30;;;;;;;-144.48;100.00;62369.91;4993569;28;20061;-69
2022/09/01 11:07:24;;;;;;;4.32;1.30;;;;;;;-144.48;100.00;62369.91;4992909;28;20084;-71
2022/09/01 11:10:21;;;;;;;4.90;1.20;;;;;;;-144.48;100.00;62369.91;4994092;28;20050;-70
2022/09/01 11:13:13;;;;;;;3.17;1.25;;;;;;;-144.48;100.00;62369.91;4993619;28;20045;-71
2022/09/01 11:15:42;;;;;;;3.20;1.20;;;;;;;-144.48;100.00;62369.91;4993360;28;20459;-69
2022/09/01 11:18:24;;;;;;;;;;;;;;;-144.48;100.00;62369.91;4993607;28;20092;-71
2022/09/01 11:20:50;;;;;;;8.63;2.00;;;;;;;-144.48;100.00;62369.91;4992527;28;19918;-69
2022/09/01 11:23:29;;;;;;;3.53;1.17;;;;;;;-144.48;100.00;62369.91;4993443;28;20033;-70
2022/09/01 11:25:58;;;;;;;4.30;1.38;;;;;;;-144.48;100.00;62369.91;4994413;28;20049;-70